createdAt,value
2018-09-26T00:00:01.284Z,29.07
2018-09-26T00:00:47.424Z,27.50
2018-09-26T00:01:34.696Z,26.40
2018-09-26T00:02:22.315Z,28.03
2018-09-26T00:03:06.446Z,27.40
2018-09-26T00:03:49.448Z,28.13
2018-09-26T00:04:32.367Z,27.90
2018-09-26T00:05:12.608Z,28.57
2018-09-26T00:05:51.811Z,26.70
2018-09-26T00:06:31.202Z,28.00
2018-09-26T00:07:10.689Z,27.23
2018-09-26T00:07:49.484Z,26.80
2018-09-26T00:08:33.053Z,27.20
2018-09-26T00:09:16.621Z,27.07
2018-09-26T00:09:55.845Z,26.13
2018-09-26T00:10:36.280Z,26.03
2018-09-26T00:11:22.878Z,26.83
2018-09-26T00:12:01.988Z,26.53
2018-09-26T00:12:40.621Z,25.87
2018-09-26T00:13:20.632Z,27.60
2018-09-26T00:14:00.625Z,26.13
2018-09-26T00:14:39.196Z,26.30
2018-09-26T00:15:18.207Z,27.20
2018-09-26T00:16:02.100Z,25.77
2018-09-26T00:16:46.515Z,26.37
2018-09-26T00:17:32.529Z,24.73
2018-09-26T00:18:23.482Z,25.70
2018-09-26T00:19:02.470Z,26.60
2018-09-26T00:19:41.370Z,27.83
2018-09-26T00:20:20.051Z,26.87
2018-09-26T00:20:59.929Z,28.53
2018-09-26T00:21:40.864Z,28.13
2018-09-26T00:22:20.420Z,27.43
2018-09-26T00:22:58.996Z,28.33
2018-09-26T00:23:39.348Z,27.67
2018-09-26T00:24:18.163Z,27.23
2018-09-26T00:25:00.070Z,26.17
2018-09-26T00:25:43.825Z,25.70
2018-09-26T00:26:22.484Z,27.43
2018-09-26T00:27:06.340Z,26.07
2018-09-26T00:27:45.009Z,27.10
2018-09-26T00:28:24.843Z,26.40
2018-09-26T00:29:07.031Z,26.73
2018-09-26T00:29:48.401Z,26.27
2018-09-26T00:30:27.792Z,26.47
2018-09-26T00:31:07.748Z,26.77
2018-09-26T00:31:47.658Z,26.17
2018-09-26T00:32:27.319Z,26.07
2018-09-26T00:33:07.767Z,27.40
2018-09-26T00:33:54.235Z,25.90
2018-09-26T00:34:33.928Z,26.53
2018-09-26T00:35:12.574Z,26.30
2018-09-26T00:35:51.191Z,25.33
2018-09-26T00:36:29.445Z,27.23
2018-09-26T00:37:07.694Z,27.10
2018-09-26T00:37:45.621Z,25.90
2018-09-26T00:38:23.714Z,26.80
2018-09-26T00:39:02.022Z,27.07
2018-09-26T00:39:40.006Z,26.00
2018-09-26T00:40:18.183Z,25.80
2018-09-26T00:40:56.228Z,26.00
2018-09-26T00:41:34.142Z,26.90
2018-09-26T00:42:12.071Z,26.17
2018-09-26T00:42:50.046Z,25.70
2018-09-26T00:43:28.166Z,26.63
2018-09-26T00:44:06.132Z,26.10
2018-09-26T00:44:44.159Z,25.63
2018-09-26T00:45:22.067Z,25.87
2018-09-26T00:46:00.103Z,26.13
2018-09-26T00:46:38.112Z,24.37
2018-09-26T00:47:15.994Z,27.10
2018-09-26T00:47:54.079Z,26.00
2018-09-26T00:48:32.182Z,24.97
2018-09-26T00:49:10.029Z,27.20
2018-09-26T00:49:48.885Z,27.80
2018-09-26T00:50:26.874Z,27.17
2018-09-26T00:51:05.666Z,25.90
2018-09-26T00:51:44.377Z,26.30
2018-09-26T00:52:22.157Z,25.60
2018-09-26T00:53:00.516Z,28.07
2018-09-26T00:53:38.717Z,25.43
2018-09-26T00:54:17.497Z,26.00
2018-09-26T00:54:55.473Z,27.53
2018-09-26T00:55:34.278Z,26.30
2018-09-26T00:56:12.169Z,24.97
2018-09-26T00:56:50.682Z,25.50
2018-09-26T00:57:28.657Z,26.67
2018-09-26T00:58:06.923Z,26.83
2018-09-26T00:58:44.927Z,25.33
2018-09-26T00:59:23.035Z,26.23
2018-09-26T01:00:01.005Z,26.83
2018-09-26T01:00:39.052Z,27.23
2018-09-26T01:01:17.017Z,26.03
2018-09-26T01:01:55.101Z,27.00
2018-09-26T01:02:32.866Z,26.57
2018-09-26T01:03:11.067Z,26.60
2018-09-26T01:03:49.365Z,25.00
2018-09-26T01:04:27.237Z,26.00
2018-09-26T01:05:05.260Z,27.67
2018-09-26T01:05:43.091Z,26.80
2018-09-26T01:06:22.331Z,25.03
2018-09-26T01:07:00.204Z,26.37
2018-09-26T01:07:38.141Z,23.50
2018-09-26T01:08:16.492Z,25.12
2018-09-26T01:08:54.331Z,26.33
2018-09-26T01:09:32.595Z,24.63
2018-09-26T01:10:10.447Z,25.37
2018-09-26T01:10:48.290Z,25.77
2018-09-26T01:11:26.594Z,25.83
2018-09-26T01:12:04.479Z,25.47
2018-09-26T01:12:42.490Z,25.10
2018-09-26T01:13:20.296Z,25.70
2018-09-26T01:13:58.313Z,23.67
2018-09-26T01:14:36.364Z,26.47
2018-09-26T01:15:14.241Z,24.97
2018-09-26T01:15:52.200Z,24.20
2018-09-26T01:16:32.061Z,24.00
2018-09-26T01:17:09.932Z,25.87
2018-09-26T01:17:47.704Z,26.53
2018-09-26T01:18:25.541Z,24.87
2018-09-26T01:19:03.597Z,27.20
2018-09-26T01:19:42.665Z,25.97
2018-09-26T01:20:20.614Z,25.90
2018-09-26T01:20:58.727Z,25.00
2018-09-26T01:21:36.706Z,24.43
2018-09-26T01:22:14.571Z,26.43
2018-09-26T01:22:55.962Z,24.93
2018-09-26T01:23:33.952Z,25.30
2018-09-26T01:24:11.957Z,26.43
2018-09-26T01:24:49.799Z,26.20
2018-09-26T01:25:27.577Z,26.20
2018-09-26T01:26:05.422Z,26.23
2018-09-26T01:26:43.434Z,26.80
2018-09-26T01:27:21.332Z,25.60
2018-09-26T01:27:59.225Z,23.87
2018-09-26T01:28:37.349Z,25.20
2018-09-26T01:29:15.166Z,25.90
2018-09-26T01:29:54.062Z,26.27
2018-09-26T01:30:31.874Z,25.20
2018-09-26T01:31:09.738Z,26.40
2018-09-26T01:31:48.007Z,27.20
2018-09-26T01:32:26.163Z,27.03
2018-09-26T01:33:04.238Z,24.93
2018-09-26T01:33:42.058Z,26.03
2018-09-26T01:34:19.966Z,26.63
2018-09-26T01:34:57.953Z,25.00
2018-09-26T01:35:35.754Z,24.50
2018-09-26T01:36:13.681Z,26.40
2018-09-26T01:36:51.502Z,25.50
2018-09-26T01:37:29.302Z,24.33
2018-09-26T01:38:07.418Z,25.07
2018-09-26T01:38:45.401Z,25.10
2018-09-26T01:39:23.335Z,23.77
2018-09-26T01:40:01.882Z,25.67
2018-09-26T01:40:39.714Z,24.63
2018-09-26T01:41:20.262Z,25.07
2018-09-26T01:41:58.297Z,25.80
2018-09-26T01:42:36.314Z,25.17
2018-09-26T01:43:14.214Z,25.83
2018-09-26T01:43:52.112Z,27.20
2018-09-26T01:44:30.066Z,26.50
2018-09-26T01:45:08.569Z,27.17
2018-09-26T01:45:46.387Z,26.80
2018-09-26T01:46:24.326Z,24.47
2018-09-26T01:47:02.420Z,25.07
2018-09-26T01:47:40.440Z,24.53
2018-09-26T01:48:19.280Z,25.30
2018-09-26T01:48:57.477Z,26.70
2018-09-26T01:49:36.177Z,25.77
2018-09-26T01:50:15.215Z,24.37
2018-09-26T01:50:53.050Z,27.83
2018-09-26T01:51:31.906Z,26.30
2018-09-26T01:52:09.967Z,25.50
2018-09-26T01:52:48.044Z,25.43
2018-09-26T01:53:25.888Z,27.20
2018-09-26T01:54:03.729Z,26.60
2018-09-26T01:54:41.772Z,26.23
2018-09-26T01:55:19.530Z,26.57
2018-09-26T01:55:57.321Z,27.17
2018-09-26T01:56:35.282Z,27.17
2018-09-26T01:57:13.203Z,27.93
2018-09-26T01:57:50.970Z,27.07
2018-09-26T01:58:28.869Z,26.40
2018-09-26T01:59:06.686Z,27.60
2018-09-26T01:59:44.697Z,27.67
2018-09-26T02:00:22.703Z,26.50
2018-09-26T02:01:00.749Z,26.57
2018-09-26T02:01:38.723Z,26.70
2018-09-26T02:02:16.581Z,27.43
2018-09-26T02:02:54.589Z,27.60
2018-09-26T02:03:32.380Z,26.40
2018-09-26T02:04:10.237Z,28.33
2018-09-26T02:04:48.065Z,28.07
2018-09-26T02:05:25.939Z,26.20
2018-09-26T02:06:04.922Z,28.87
2018-09-26T02:06:42.805Z,28.03
2018-09-26T02:07:20.858Z,27.13
2018-09-26T02:07:58.693Z,26.17
2018-09-26T02:08:36.717Z,28.90
2018-09-26T02:09:15.160Z,27.73
2018-09-26T02:09:53.186Z,26.80
2018-09-26T02:10:31.115Z,26.63
2018-09-26T02:11:08.943Z,26.77
2018-09-26T02:11:46.833Z,27.07
2018-09-26T02:12:24.922Z,27.47
2018-09-26T02:13:02.825Z,27.27
2018-09-26T02:13:40.704Z,25.63
2018-09-26T02:14:18.461Z,26.47
2018-09-26T02:14:56.498Z,25.47
2018-09-26T02:15:34.306Z,25.53
2018-09-26T02:16:12.475Z,27.10
2018-09-26T02:16:50.515Z,26.30
2018-09-26T02:17:28.386Z,25.00
2018-09-26T02:18:06.262Z,26.00
2018-09-26T02:18:44.452Z,25.67
2018-09-26T02:19:22.303Z,25.20
2018-09-26T02:20:00.150Z,25.83
2018-09-26T02:20:38.031Z,25.17
2018-09-26T02:21:15.959Z,25.93
2018-09-26T02:21:54.032Z,26.27
2018-09-26T02:22:31.894Z,25.67
2018-09-26T02:23:09.872Z,26.17
2018-09-26T02:23:47.897Z,25.00
2018-09-26T02:24:25.834Z,25.67
2018-09-26T02:25:03.896Z,26.50
2018-09-26T02:25:41.638Z,26.60
2018-09-26T02:26:19.538Z,25.73
2018-09-26T02:26:57.386Z,27.30
2018-09-26T02:27:35.246Z,26.40
2018-09-26T02:28:13.201Z,26.17
2018-09-26T02:28:51.035Z,25.17
2018-09-26T02:29:28.898Z,25.13
2018-09-26T02:30:07.819Z,26.70
2018-09-26T02:30:45.792Z,25.90
2018-09-26T02:31:23.745Z,25.90
2018-09-26T02:32:02.616Z,25.47
2018-09-26T02:32:40.535Z,26.70
2018-09-26T02:33:18.323Z,22.47
2018-09-26T02:33:56.432Z,23.47
2018-09-26T02:34:34.393Z,23.83
2018-09-26T02:35:12.286Z,25.00
2018-09-26T02:35:50.130Z,24.90
2018-09-26T02:36:28.368Z,24.43
2018-09-26T02:37:09.143Z,24.80
2018-09-26T02:37:47.021Z,26.23
2018-09-26T02:38:24.919Z,24.73
2018-09-26T02:39:03.255Z,23.93
2018-09-26T02:39:42.173Z,25.80
2018-09-26T02:40:20.104Z,24.03
2018-09-26T02:40:58.210Z,24.23
2018-09-26T02:41:37.459Z,26.10
2018-09-26T02:42:15.765Z,23.70
2018-09-26T02:42:54.124Z,24.90
2018-09-26T02:43:32.154Z,23.87
2018-09-26T02:44:10.605Z,23.83
2018-09-26T02:44:48.965Z,24.77
2018-09-26T02:45:26.972Z,26.40
2018-09-26T02:46:04.962Z,25.57
2018-09-26T02:46:43.030Z,25.70
2018-09-26T02:47:21.128Z,25.17
2018-09-26T02:47:59.080Z,27.00
2018-09-26T02:49:11.853Z,24.80
2018-09-26T02:49:49.896Z,24.50
2018-09-26T02:50:28.039Z,24.77
2018-09-26T02:51:07.108Z,25.57
2018-09-26T02:51:45.262Z,25.23
2018-09-26T02:52:23.357Z,25.87
2018-09-26T02:53:01.225Z,26.27
2018-09-26T02:53:39.015Z,24.77
2018-09-26T02:54:18.038Z,25.12
2018-09-26T02:54:55.960Z,25.87
2018-09-26T02:55:33.772Z,24.53
2018-09-26T02:56:11.841Z,25.40
2018-09-26T02:56:50.732Z,25.33
2018-09-26T02:57:28.596Z,25.00
2018-09-26T02:58:06.515Z,23.20
2018-09-26T02:58:44.475Z,23.93
2018-09-26T02:59:22.268Z,26.20
2018-09-26T03:00:00.137Z,25.57
2018-09-26T03:00:38.337Z,24.10
2018-09-26T03:01:16.409Z,25.00
2018-09-26T03:01:55.354Z,25.80
2018-09-26T03:02:33.350Z,25.30
2018-09-26T03:03:11.350Z,26.17
2018-09-26T03:03:49.427Z,24.97
2018-09-26T03:04:27.335Z,25.47
2018-09-26T03:05:06.205Z,24.23
2018-09-26T03:05:44.416Z,24.60
2018-09-26T03:06:22.252Z,25.30
2018-09-26T03:07:00.305Z,25.07
2018-09-26T03:07:38.213Z,23.50
2018-09-26T03:08:16.381Z,21.73
2018-09-26T03:08:55.473Z,24.60
2018-09-26T03:09:33.346Z,22.30
2018-09-26T03:10:11.127Z,23.27
2018-09-26T03:10:49.327Z,24.00
2018-09-26T03:11:27.294Z,22.70
2018-09-26T03:12:05.261Z,22.80
2018-09-26T03:12:43.101Z,23.90
2018-09-26T03:13:21.022Z,23.40
2018-09-26T03:13:58.869Z,22.57
2018-09-26T03:14:36.969Z,23.37
2018-09-26T03:15:14.928Z,24.53
2018-09-26T03:15:52.901Z,24.13
2018-09-26T03:16:30.800Z,22.67
2018-09-26T03:17:08.623Z,22.20
2018-09-26T03:17:46.520Z,21.70
2018-09-26T03:18:25.306Z,22.30
2018-09-26T03:19:03.170Z,21.80
2018-09-26T03:19:40.997Z,24.17
2018-09-26T03:20:18.902Z,21.53
2018-09-26T03:20:56.729Z,21.40
2018-09-26T03:21:34.561Z,21.90
2018-09-26T03:22:12.521Z,22.23
2018-09-26T03:22:51.535Z,23.10
2018-09-26T03:23:29.836Z,23.23
2018-09-26T03:24:07.852Z,25.07
2018-09-26T03:24:45.652Z,23.90
2018-09-26T03:25:23.676Z,23.57
2018-09-26T03:26:01.579Z,22.90
2018-09-26T03:26:39.497Z,24.57
2018-09-26T03:27:17.369Z,22.90
2018-09-26T03:27:55.359Z,23.47
2018-09-26T03:28:33.249Z,24.30
2018-09-26T03:29:11.402Z,23.43
2018-09-26T03:29:50.738Z,22.90
2018-09-26T03:30:28.590Z,23.07
2018-09-26T03:31:06.430Z,21.80
2018-09-26T03:31:44.343Z,22.60
2018-09-26T03:32:22.283Z,24.37
2018-09-26T03:33:00.134Z,22.53
2018-09-26T03:33:38.127Z,22.10
2018-09-26T03:34:16.903Z,23.25
2018-09-26T03:34:54.987Z,23.43
2018-09-26T03:35:32.857Z,22.80
2018-09-26T03:36:10.680Z,23.40
2018-09-26T03:36:48.675Z,22.80
2018-09-26T03:37:26.569Z,22.73
2018-09-26T03:38:04.600Z,23.50
2018-09-26T03:38:43.578Z,21.80
2018-09-26T03:39:21.573Z,21.93
2018-09-26T03:39:59.498Z,24.20
2018-09-26T03:40:37.331Z,22.50
2018-09-26T03:41:15.147Z,23.00
2018-09-26T03:41:53.261Z,21.70
2018-09-26T03:42:32.258Z,23.20
2018-09-26T03:43:10.511Z,22.90
2018-09-26T03:43:48.376Z,22.90
2018-09-26T03:44:26.263Z,23.33
2018-09-26T03:45:04.204Z,21.50
2018-09-26T03:45:42.205Z,21.53
2018-09-26T03:46:20.013Z,23.23
2018-09-26T03:46:57.961Z,22.27
2018-09-26T03:47:36.995Z,23.33
2018-09-26T03:48:15.002Z,21.60
2018-09-26T03:48:53.105Z,23.67
2018-09-26T03:49:31.218Z,23.60
2018-09-26T03:50:09.615Z,23.30
2018-09-26T03:50:47.672Z,22.80
2018-09-26T03:51:25.584Z,23.57
2018-09-26T03:52:04.485Z,21.70
2018-09-26T03:52:43.393Z,23.13
2018-09-26T03:53:22.420Z,22.10
2018-09-26T03:54:01.405Z,23.37
2018-09-26T03:54:39.154Z,22.67
2018-09-26T03:55:20.838Z,23.20
2018-09-26T03:55:59.496Z,22.50
2018-09-26T03:56:37.370Z,24.13
2018-09-26T03:57:15.261Z,22.63
2018-09-26T03:57:56.536Z,23.33
2018-09-26T03:58:34.331Z,22.27
2018-09-26T03:59:12.455Z,23.70
2018-09-26T03:59:50.261Z,22.27
2018-09-26T04:00:30.007Z,23.27
2018-09-26T04:01:08.105Z,21.67
2018-09-26T04:01:45.957Z,20.87
2018-09-26T04:02:23.840Z,22.60
2018-09-26T04:03:01.627Z,22.20
2018-09-26T04:03:40.316Z,22.60
2018-09-26T04:04:19.167Z,21.57
2018-09-26T04:04:58.010Z,21.90
2018-09-26T04:05:35.823Z,23.40
2018-09-26T04:06:13.689Z,23.33
2018-09-26T04:06:51.728Z,24.00
2018-09-26T04:07:29.554Z,25.30
2018-09-26T04:08:07.369Z,24.73
2018-09-26T04:08:45.385Z,23.50
2018-09-26T04:09:23.201Z,24.53
2018-09-26T04:10:01.377Z,22.40
2018-09-26T04:10:39.307Z,23.87
2018-09-26T04:11:17.441Z,24.13
2018-09-26T04:11:55.298Z,23.07
2018-09-26T04:12:33.989Z,23.00
2018-09-26T04:13:11.922Z,24.93
2018-09-26T04:13:49.862Z,22.93
2018-09-26T04:14:27.728Z,22.80
2018-09-26T04:15:05.703Z,24.70
2018-09-26T04:15:52.094Z,23.80
2018-09-26T04:16:29.984Z,24.53
2018-09-26T04:17:07.926Z,24.20
2018-09-26T04:17:46.014Z,24.30
2018-09-26T04:18:25.389Z,25.30
2018-09-26T04:19:03.514Z,23.37
2018-09-26T04:19:41.537Z,23.93
2018-09-26T04:20:19.367Z,22.93
2018-09-26T04:20:57.859Z,24.60
2018-09-26T04:21:35.723Z,24.37
2018-09-26T04:22:13.653Z,24.10
2018-09-26T04:22:52.393Z,23.67
2018-09-26T04:23:30.218Z,25.33
2018-09-26T04:24:08.239Z,25.00
2018-09-26T04:24:46.102Z,24.67
2018-09-26T04:25:24.101Z,26.00
2018-09-26T04:26:01.906Z,23.37
2018-09-26T04:26:40.143Z,25.03
2018-09-26T04:27:18.023Z,24.13
2018-09-26T04:27:56.003Z,26.07
2018-09-26T04:28:34.041Z,27.00
2018-09-26T04:29:11.935Z,25.03
2018-09-26T04:29:49.850Z,26.40
2018-09-26T04:30:27.918Z,26.27
2018-09-26T04:31:05.783Z,25.03
2018-09-26T04:31:43.604Z,27.20
2018-09-26T04:32:21.631Z,27.53
2018-09-26T04:32:59.612Z,25.87
2018-09-26T04:33:37.653Z,28.37
2018-09-26T04:34:17.602Z,25.95
2018-09-26T04:34:55.764Z,27.20
2018-09-26T04:35:33.685Z,25.70
2018-09-26T04:36:11.511Z,27.00
2018-09-26T04:36:49.454Z,26.87
2018-09-26T04:37:27.626Z,26.10
2018-09-26T04:38:05.488Z,26.03
2018-09-26T04:38:43.563Z,25.57
2018-09-26T04:39:21.491Z,26.90
2018-09-26T04:39:59.436Z,25.87
2018-09-26T04:40:38.117Z,27.57
2018-09-26T04:41:16.038Z,28.17
2018-09-26T04:41:53.992Z,26.83
2018-09-26T04:42:31.837Z,26.73
2018-09-26T04:43:09.896Z,27.13
2018-09-26T04:43:48.119Z,26.10
2018-09-26T04:44:25.977Z,25.97
2018-09-26T04:45:03.822Z,27.67
2018-09-26T04:45:41.740Z,27.30
2018-09-26T04:46:19.653Z,26.80
2018-09-26T04:46:57.474Z,25.80
2018-09-26T04:47:35.468Z,26.30
2018-09-26T04:48:13.284Z,26.57
2018-09-26T04:48:51.139Z,26.70
2018-09-26T04:49:29.004Z,27.27
2018-09-26T04:50:08.336Z,28.70
2018-09-26T04:50:46.237Z,26.40
2018-09-26T04:51:24.093Z,27.87
2018-09-26T04:52:02.285Z,27.37
2018-09-26T04:52:40.375Z,26.47
2018-09-26T04:53:18.404Z,28.20
2018-09-26T04:53:56.222Z,27.73
2018-09-26T04:54:34.208Z,29.13
2018-09-26T04:55:12.088Z,29.50
2018-09-26T04:55:50.004Z,27.80
2018-09-26T04:56:29.888Z,29.87
2018-09-26T04:57:07.679Z,27.80
2018-09-26T04:57:45.568Z,28.47
2018-09-26T04:58:23.594Z,28.23
2018-09-26T04:59:01.684Z,28.70
2018-09-26T04:59:39.554Z,29.17
2018-09-26T05:00:17.523Z,30.17
2018-09-26T05:00:55.336Z,29.40
2018-09-26T05:01:35.049Z,29.50
2018-09-26T05:02:12.836Z,29.53
2018-09-26T05:02:50.874Z,29.83
2018-09-26T05:03:28.710Z,30.17
2018-09-26T05:04:06.748Z,30.70
2018-09-26T05:04:44.591Z,29.70
2018-09-26T05:05:22.499Z,31.20
2018-09-26T05:06:01.287Z,30.33
2018-09-26T05:06:39.355Z,31.53
2018-09-26T05:07:18.408Z,30.63
2018-09-26T05:07:56.205Z,30.30
2018-09-26T05:08:34.336Z,29.57
2018-09-26T05:09:13.757Z,29.13
2018-09-26T05:09:51.843Z,32.20
2018-09-26T05:10:29.665Z,28.20
2018-09-26T05:11:07.550Z,29.17
2018-09-26T05:11:45.495Z,30.50
2018-09-26T05:12:23.356Z,28.90
2018-09-26T05:13:01.266Z,28.67
2018-09-26T05:13:39.373Z,28.37
2018-09-26T05:14:17.178Z,30.13
2018-09-26T05:14:55.167Z,28.87
2018-09-26T05:15:32.960Z,27.40
2018-09-26T05:16:10.809Z,24.80
2018-09-26T05:16:48.679Z,26.83
2018-09-26T05:17:26.571Z,27.90
2018-09-26T05:18:04.372Z,27.67
2018-09-26T05:18:43.289Z,25.00
2018-09-26T05:19:21.118Z,27.10
2018-09-26T05:19:59.242Z,25.53
2018-09-26T05:20:37.362Z,24.60
2018-09-26T05:21:15.488Z,25.53
2018-09-26T05:21:53.354Z,24.43
2018-09-26T05:22:31.290Z,26.60
2018-09-26T05:23:09.242Z,25.70
2018-09-26T05:23:47.346Z,25.70
2018-09-26T05:24:25.375Z,26.23
2018-09-26T05:25:03.498Z,25.50
2018-09-26T05:25:42.374Z,27.03
2018-09-26T05:26:20.484Z,27.30
2018-09-26T05:26:58.354Z,26.80
2018-09-26T05:27:36.250Z,27.97
2018-09-26T05:28:14.029Z,27.83
2018-09-26T05:28:51.828Z,27.23
2018-09-26T05:29:29.760Z,27.83
2018-09-26T05:30:07.739Z,28.33
2018-09-26T05:30:45.679Z,28.30
2018-09-26T05:31:23.561Z,28.50
2018-09-26T05:32:01.513Z,27.63
2018-09-26T05:32:40.762Z,27.63
2018-09-26T05:33:18.576Z,28.30
2018-09-26T05:33:56.506Z,27.30
2018-09-26T05:34:34.309Z,26.87
2018-09-26T05:35:12.395Z,28.67
2018-09-26T05:35:50.478Z,28.33
2018-09-26T05:36:28.590Z,29.27
2018-09-26T05:37:06.558Z,29.37
2018-09-26T05:37:44.384Z,28.37
2018-09-26T05:38:22.431Z,30.17
2018-09-26T05:39:00.293Z,29.30
2018-09-26T05:39:38.223Z,28.20
2018-09-26T05:40:17.268Z,29.80
2018-09-26T05:40:55.330Z,27.17
2018-09-26T05:41:39.014Z,27.87
2018-09-26T05:42:17.235Z,26.50
2018-09-26T05:42:55.193Z,26.40
2018-09-26T05:43:33.178Z,27.53
2018-09-26T05:44:12.072Z,25.77
2018-09-26T05:44:50.184Z,26.73
2018-09-26T05:45:28.076Z,26.80
2018-09-26T05:46:06.127Z,27.57
2018-09-26T05:46:44.321Z,27.17
2018-09-26T05:47:22.323Z,27.20
2018-09-26T05:48:00.167Z,29.73
2018-09-26T05:48:38.478Z,29.00
2018-09-26T05:49:16.404Z,28.70
2018-09-26T05:49:54.278Z,28.53
2018-09-26T05:50:32.147Z,26.93
2018-09-26T05:51:10.242Z,28.37
2018-09-26T05:51:48.009Z,28.40
2018-09-26T05:52:25.810Z,28.17
2018-09-26T05:53:03.790Z,26.93
2018-09-26T05:53:41.712Z,26.60
2018-09-26T05:54:19.709Z,28.20
2018-09-26T05:54:57.731Z,27.30
2018-09-26T05:55:35.858Z,26.73
2018-09-26T05:56:14.541Z,27.70
2018-09-26T05:56:52.813Z,26.70
2018-09-26T05:57:30.682Z,28.20
2018-09-26T05:58:08.557Z,28.40
2018-09-26T05:58:47.355Z,28.40
2018-09-26T05:59:25.281Z,27.00
2018-09-26T06:00:04.165Z,28.07
2018-09-26T06:00:43.272Z,29.20
2018-09-26T06:01:21.066Z,28.73
2018-09-26T06:01:58.906Z,27.77
2018-09-26T06:02:37.509Z,28.87
2018-09-26T06:03:15.664Z,28.03
2018-09-26T06:03:53.973Z,28.70
2018-09-26T06:04:31.828Z,26.73
2018-09-26T06:05:09.680Z,27.07
2018-09-26T06:05:47.608Z,26.47
2018-09-26T06:06:25.500Z,28.80
2018-09-26T06:07:03.376Z,28.23
2018-09-26T06:07:41.179Z,26.67
2018-09-26T06:08:19.130Z,27.10
2018-09-26T06:08:56.944Z,28.23
2018-09-26T06:09:34.833Z,27.17
2018-09-26T06:10:12.846Z,28.07
2018-09-26T06:10:50.778Z,28.13
2018-09-26T06:11:28.595Z,26.73
2018-09-26T06:12:12.358Z,26.73
2018-09-26T06:12:50.203Z,27.23
2018-09-26T06:13:28.138Z,27.73
2018-09-26T06:14:06.912Z,27.10
2018-09-26T06:14:44.917Z,27.33
2018-09-26T06:15:23.015Z,27.20
2018-09-26T06:16:01.814Z,25.70
2018-09-26T06:16:39.739Z,28.90
2018-09-26T06:17:17.709Z,29.50
2018-09-26T06:17:56.398Z,32.67
2018-09-26T06:18:34.303Z,36.23
2018-09-26T06:19:12.687Z,35.17
2018-09-26T06:19:50.541Z,34.73
2018-09-26T06:20:28.360Z,33.50
2018-09-26T06:21:06.355Z,35.37
2018-09-26T06:21:44.233Z,38.67
2018-09-26T06:22:22.146Z,37.97
2018-09-26T06:23:00.014Z,41.70
2018-09-26T06:23:37.866Z,40.90
2018-09-26T06:24:16.707Z,40.33
2018-09-26T06:24:54.483Z,42.30
2018-09-26T06:25:33.357Z,43.97
2018-09-26T06:26:11.329Z,47.70
2018-09-26T06:26:49.123Z,51.70
2018-09-26T06:27:27.043Z,49.37
2018-09-26T06:28:05.697Z,49.87
2018-09-26T06:28:43.574Z,47.00
2018-09-26T06:29:21.512Z,47.40
2018-09-26T06:29:59.316Z,48.90
2018-09-26T06:30:37.174Z,47.00
2018-09-26T06:31:15.001Z,49.13
2018-09-26T06:31:52.829Z,48.37
2018-09-26T06:32:30.669Z,47.57
2018-09-26T06:33:08.646Z,49.90
2018-09-26T06:33:46.498Z,50.40
2018-09-26T06:34:25.669Z,50.10
2018-09-26T06:35:03.629Z,49.87
2018-09-26T06:35:41.605Z,51.73
2018-09-26T06:36:19.440Z,48.53
2018-09-26T06:36:57.254Z,48.50
2018-09-26T06:37:35.138Z,47.83
2018-09-26T06:38:13.013Z,46.73
2018-09-26T06:38:50.882Z,44.77
2018-09-26T06:39:28.813Z,48.10
2018-09-26T06:40:08.272Z,47.90
2018-09-26T06:40:46.106Z,48.70
2018-09-26T06:41:24.097Z,48.10
2018-09-26T06:42:02.077Z,46.93
2018-09-26T06:42:39.872Z,49.27
2018-09-26T06:43:18.653Z,50.80
2018-09-26T06:43:56.654Z,53.30
2018-09-26T06:44:34.565Z,51.73
2018-09-26T06:45:12.619Z,51.30
2018-09-26T06:45:50.717Z,52.50
2018-09-26T06:46:28.654Z,50.27
2018-09-26T06:47:06.469Z,52.90
2018-09-26T06:47:44.301Z,54.07
2018-09-26T06:48:22.389Z,56.00
2018-09-26T06:49:00.514Z,53.10
2018-09-26T06:49:38.505Z,54.03
2018-09-26T06:50:16.981Z,52.50
2018-09-26T06:50:54.929Z,52.40
2018-09-26T06:51:32.763Z,51.30
2018-09-26T06:52:10.639Z,53.03
2018-09-26T06:52:48.583Z,53.33
2018-09-26T06:53:26.413Z,56.43
2018-09-26T06:54:05.146Z,55.57
2018-09-26T06:54:43.089Z,50.27
2018-09-26T06:55:20.980Z,53.10
2018-09-26T06:55:58.783Z,46.60
2018-09-26T06:56:36.588Z,51.40
2018-09-26T06:57:15.826Z,50.77
2018-09-26T06:57:53.721Z,48.50
2018-09-26T06:58:31.488Z,48.37
2018-09-26T06:59:09.733Z,46.63
2018-09-26T06:59:47.833Z,44.77
2018-09-26T07:00:25.810Z,46.40
2018-09-26T07:01:03.981Z,43.60
2018-09-26T07:01:41.965Z,46.30
2018-09-26T07:02:19.946Z,45.80
2018-09-26T07:02:58.218Z,43.37
2018-09-26T07:03:36.217Z,44.97
2018-09-26T07:04:14.074Z,43.97
2018-09-26T07:04:52.194Z,41.27
2018-09-26T07:05:30.101Z,40.97
2018-09-26T07:06:08.071Z,43.97
2018-09-26T07:06:45.873Z,43.43
2018-09-26T07:07:23.839Z,44.40
2018-09-26T07:08:01.692Z,44.30
2018-09-26T07:08:39.454Z,42.40
2018-09-26T07:09:17.613Z,41.93
2018-09-26T07:09:55.534Z,39.70
2018-09-26T07:10:33.530Z,37.43
2018-09-26T07:11:11.395Z,38.17
2018-09-26T07:11:49.474Z,34.90
2018-09-26T07:12:27.673Z,36.57
2018-09-26T07:13:05.487Z,35.60
2018-09-26T07:13:43.370Z,35.50
2018-09-26T07:14:21.321Z,35.93
2018-09-26T07:14:59.151Z,36.70
2018-09-26T07:15:43.954Z,35.53
2018-09-26T07:16:21.931Z,36.30
2018-09-26T07:16:59.816Z,33.77
2018-09-26T07:17:38.100Z,36.80
2018-09-26T07:18:16.560Z,35.23
2018-09-26T07:18:54.416Z,34.50
2018-09-26T07:19:32.608Z,34.37
2018-09-26T07:20:12.107Z,34.70
2018-09-26T07:20:50.015Z,35.20
2018-09-26T07:21:27.857Z,32.40
2018-09-26T07:22:05.673Z,35.87
2018-09-26T07:22:43.471Z,32.70
2018-09-26T07:23:21.806Z,34.17
2018-09-26T07:23:59.729Z,33.03
2018-09-26T07:24:38.079Z,33.90
2018-09-26T07:25:15.993Z,30.90
2018-09-26T07:25:54.162Z,31.87
2018-09-26T07:26:33.038Z,32.07
2018-09-26T07:27:10.856Z,32.30
2018-09-26T07:27:48.940Z,31.40
2018-09-26T07:28:27.013Z,32.03
2018-09-26T07:29:04.857Z,31.50
2018-09-26T07:29:42.842Z,32.33
2018-09-26T07:30:20.724Z,29.87
2018-09-26T07:30:59.384Z,30.53
2018-09-26T07:31:37.394Z,31.43
2018-09-26T07:32:16.832Z,31.57
2018-09-26T07:32:54.811Z,30.47
2018-09-26T07:33:32.704Z,31.60
2018-09-26T07:34:10.648Z,30.87
2018-09-26T07:34:48.497Z,32.20
2018-09-26T07:35:27.747Z,32.27
2018-09-26T07:36:05.626Z,32.30
2018-09-26T07:36:43.515Z,30.27
2018-09-26T07:37:22.275Z,32.03
2018-09-26T07:38:00.187Z,32.20
2018-09-26T07:38:39.326Z,31.77
2018-09-26T07:39:17.158Z,31.60
2018-09-26T07:39:55.121Z,31.07
2018-09-26T07:40:33.136Z,32.70
2018-09-26T07:41:11.135Z,29.30
2018-09-26T07:41:50.518Z,32.87
2018-09-26T07:42:28.400Z,31.20
2018-09-26T07:43:06.716Z,31.10
2018-09-26T07:43:44.697Z,31.80
2018-09-26T07:44:22.726Z,32.10
2018-09-26T07:45:01.599Z,33.70
2018-09-26T07:45:39.529Z,32.33
2018-09-26T07:46:17.503Z,33.60
2018-09-26T07:46:56.227Z,31.97
2018-09-26T07:47:35.091Z,32.80
2018-09-26T07:48:12.965Z,32.80
2018-09-26T07:48:50.799Z,33.20
2018-09-26T07:49:28.785Z,33.93
2018-09-26T07:50:07.478Z,34.97
2018-09-26T07:50:45.370Z,33.67
2018-09-26T07:51:23.312Z,33.53
2018-09-26T07:52:01.138Z,32.73
2018-09-26T07:52:39.218Z,34.47
2018-09-26T07:53:18.053Z,34.33
2018-09-26T07:53:55.969Z,35.07
2018-09-26T07:54:34.878Z,36.37
2018-09-26T07:55:12.855Z,33.47
2018-09-26T07:55:50.989Z,34.67
2018-09-26T07:56:28.949Z,35.20
2018-09-26T07:57:06.806Z,35.47
2018-09-26T07:57:44.771Z,35.33
2018-09-26T07:58:22.584Z,34.23
2018-09-26T07:59:00.570Z,35.00
2018-09-26T07:59:38.447Z,33.80
2018-09-26T08:00:16.954Z,35.98
2018-09-26T08:00:55.897Z,33.60
2018-09-26T08:01:33.860Z,35.27
2018-09-26T08:02:11.964Z,34.50
2018-09-26T08:02:49.809Z,34.67
2018-09-26T08:03:27.706Z,35.97
2018-09-26T08:04:05.794Z,35.00
2018-09-26T08:04:43.670Z,34.20
2018-09-26T08:05:22.354Z,34.90
2018-09-26T08:06:00.523Z,33.67
2018-09-26T08:06:38.421Z,35.97
2018-09-26T08:07:16.312Z,35.90
2018-09-26T08:07:54.197Z,36.23
2018-09-26T08:08:32.110Z,34.37
2018-09-26T08:09:11.954Z,36.23
2018-09-26T08:09:49.871Z,35.40
2018-09-26T08:10:27.695Z,34.20
2018-09-26T08:11:05.577Z,36.53
2018-09-26T08:11:43.532Z,35.67
2018-09-26T08:12:21.497Z,36.50
2018-09-26T08:12:59.421Z,35.17
2018-09-26T08:13:37.272Z,36.37
2018-09-26T08:14:15.086Z,32.97